sensor_id;sensor_type;location;lat;lon;timestamp;pressure;altitude;pressure_sealevel;temperature;humidity
80566;BME280;69915;54.862;10.730;2023-08-31T00:01:30;100260.66;;;14.07;100.00
80566;BME280;69915;54.862;10.730;2023-08-31T00:03:55;100237.28;;;13.92;100.00
80566;BME280;69915;54.862;10.730;2023-08-31T00:06:21;100256.00;;;13.99;100.00
80566;BME280;69915;54.862;10.730;2023-08-31T00:08:47;100253.25;;;13.99;100.00
80566;BME280;69915;54.862;10.730;2023-08-31T00:11:12;100250.50;;;13.99;100.00
80566;BME280;69915;54.862;10.730;2023-08-31T00:13:38;100241.31;;;13.95;100.00
80566;BME280;69915;54.862;10.730;2023-08-31T00:16:03;100228.38;;;13.95;100.00
80566;BME280;69915;54.862;10.730;2023-08-31T00:18:30;100219.97;;;13.92;100.00
80566;BME280;69915;54.862;10.730;2023-08-31T00:20:55;100240.66;;;13.98;100.00
80566;BME280;69915;54.862;10.730;2023-08-31T00:23:21;100238.09;;;13.93;100.00
80566;BME280;69915;54.862;10.730;2023-08-31T00:25:47;100239.72;;;13.94;100.00
80566;BME280;69915;54.862;10.730;2023-08-31T00:28:17;100238.41;;;13.91;100.00
80566;BME280;69915;54.862;10.730;2023-08-31T00:30:44;100235.03;;;13.86;100.00
80566;BME280;69915;54.862;10.730;2023-08-31T00:33:13;100219.03;;;13.79;100.00
80566;BME280;69915;54.862;10.730;2023-08-31T00:35:38;100236.31;;;13.88;100.00
80566;BME280;69915;54.862;10.730;2023-08-31T00:38:09;100238.75;;;13.90;100.00
80566;BME280;69915;54.862;10.730;2023-08-31T00:40:39;100224.69;;;13.83;100.00
80566;BME280;69915;54.862;10.730;2023-08-31T00:43:06;100216.81;;;13.73;100.00
80566;BME280;69915;54.862;10.730;2023-08-31T00:45:32;100227.44;;;13.83;100.00
80566;BME280;69915;54.862;10.730;2023-08-31T00:47:58;100229.72;;;13.81;100.00
80566;BME280;69915;54.862;10.730;2023-08-31T00:50:24;100219.84;;;13.80;100.00
80566;BME280;69915;54.862;10.730;2023-08-31T00:52:49;100216.16;;;13.76;100.00
80566;BME280;69915;54.862;10.730;2023-08-31T00:55:15;100237.78;;;13.86;100.00
80566;BME280;69915;54.862;10.730;2023-08-31T00:57:43;100221.50;;;13.72;100.00
80566;BME280;69915;54.862;10.730;2023-08-31T01:00:09;100227.78;;;13.81;100.00
80566;BME280;69915;54.862;10.730;2023-08-31T01:05:41;100229.72;;;13.81;100.00
80566;BME280;69915;54.862;10.730;2023-08-31T01:10:43;100222.59;;;13.80;100.00
80566;BME280;69915;54.862;10.730;2023-08-31T01:13:14;100201.63;;;13.67;100.00
80566;BME280;69915;54.862;10.730;2023-08-31T01:15:44;100210.97;;;13.74;100.00
80566;BME280;69915;54.862;10.730;2023-08-31T01:18:17;100195.34;;;13.57;100.00
80566;BME280;69915;54.862;10.730;2023-08-31T01:20:55;100213.09;;;13.69;100.00
80566;BME280;69915;54.862;10.730;2023-08-31T01:23:29;100186.47;;;13.43;100.00
80566;BME280;69915;54.862;10.730;2023-08-31T01:25:56;100204.38;;;13.58;100.00
80566;BME280;69915;54.862;10.730;2023-08-31T01:28:22;100199.69;;;13.58;100.00
80566;BME280;69915;54.862;10.730;2023-08-31T01:30:48;100210.03;;;13.61;100.00
80566;BME280;69915;54.862;10.730;2023-08-31T01:33:14;100190.81;;;13.44;100.00
80566;BME280;69915;54.862;10.730;2023-08-31T01:35:43;100195.66;;;13.47;100.00
80566;BME280;69915;54.862;10.730;2023-08-31T01:38:12;100211.31;;;13.55;100.00
80566;BME280;69915;54.862;10.730;2023-08-31T01:40:53;100207.31;;;13.44;100.00
80566;BME280;69915;54.862;10.730;2023-08-31T01:43:21;100190.03;;;13.35;100.00
80566;BME280;69915;54.862;10.730;2023-08-31T01:45:48;100209.41;;;13.47;100.00
80566;BME280;69915;54.862;10.730;2023-08-31T01:48:14;100213.44;;;13.50;100.00
80566;BME280;69915;54.862;10.730;2023-08-31T01:54:02;100195.50;;;13.44;100.00
80566;BME280;69915;54.862;10.730;2023-08-31T01:56:28;100215.69;;;13.56;100.00
80566;BME280;69915;54.862;10.730;2023-08-31T01:58:54;100218.75;;;13.63;100.00
80566;BME280;69915;54.862;10.730;2023-08-31T02:01:19;100213.28;;;13.63;100.00
80566;BME280;69915;54.862;10.730;2023-08-31T02:03:45;100217.13;;;13.62;100.00
80566;BME280;69915;54.862;10.730;2023-08-31T02:06:11;100198.59;;;13.51;100.00
80566;BME280;69915;54.862;10.730;2023-08-31T02:08:36;100219.41;;;13.60;100.00
80566;BME280;69915;54.862;10.730;2023-08-31T02:11:01;100222.63;;;13.62;100.00
80566;BME280;69915;54.862;10.730;2023-08-31T02:13:27;100198.25;;;13.52;100.00
80566;BME280;69915;54.862;10.730;2023-08-31T02:15:53;100223.75;;;13.61;100.00
80566;BME280;69915;54.862;10.730;2023-08-31T02:18:19;100223.75;;;13.61;100.00
80566;BME280;69915;54.862;10.730;2023-08-31T02:20:44;100216.78;;;13.64;100.00
80566;BME280;69915;54.862;10.730;2023-08-31T02:23:10;100210.50;;;13.55;100.00
80566;BME280;69915;54.862;10.730;2023-08-31T02:25:37;100227.00;;;13.63;100.00
80566;BME280;69915;54.862;10.730;2023-08-31T02:28:03;100209.06;;;13.57;100.00
80566;BME280;69915;54.862;10.730;2023-08-31T02:30:28;100231.66;;;13.72;100.00
80566;BME280;69915;54.862;10.730;2023-08-31T02:32:54;100212.28;;;13.59;100.00
80566;BME280;69915;54.862;10.730;2023-08-31T02:35:19;100204.88;;;13.60;100.00
80566;BME280;69915;54.862;10.730;2023-08-31T02:37:44;100211.47;;;13.59;100.00
80566;BME280;69915;54.862;10.730;2023-08-31T02:40:10;100226.81;;;13.69;100.00
80566;BME280;69915;54.862;10.730;2023-08-31T02:42:37;100219.06;;;13.62;100.00
80566;BME280;69915;54.862;10.730;2023-08-31T02:45:02;100197.44;;;13.52;100.00
80566;BME280;69915;54.862;10.730;2023-08-31T02:47:28;100226.00;;;13.68;100.00
80566;BME280;69915;54.862;10.730;2023-08-31T02:49:53;100201.97;;;13.56;100.00
80566;BME280;69915;54.862;10.730;2023-08-31T02:52:19;100205.19;;;13.58;100.00
80566;BME280;69915;54.862;10.730;2023-08-31T02:54:44;100215.38;;;13.67;100.00
80566;BME280;69915;54.862;10.730;2023-08-31T02:57:10;100202.13;;;13.60;100.00
80566;BME280;69915;54.862;10.730;2023-08-31T02:59:35;100211.97;;;13.70;100.00
80566;BME280;69915;54.862;10.730;2023-08-31T03:02:04;100211.97;;;13.70;100.00
80566;BME280;69915;54.862;10.730;2023-08-31T03:04:30;100203.72;;;13.61;100.00
80566;BME280;69915;54.862;10.730;2023-08-31T03:06:56;100209.22;;;13.70;100.00
80566;BME280;69915;54.862;10.730;2023-08-31T03:09:21;100214.84;;;13.73;100.00
80566;BME280;69915;54.862;10.730;2023-08-31T03:11:47;100213.72;;;13.74;100.00
80566;BME280;69915;54.862;10.730;2023-08-31T03:14:12;100204.03;;;13.68;100.00
80566;BME280;69915;54.862;10.730;2023-08-31T03:16:38;100213.88;;;13.78;100.00
80566;BME280;69915;54.862;10.730;2023-08-31T03:19:03;100199.34;;;13.69;100.00
80566;BME280;69915;54.862;10.730;2023-08-31T03:21:29;100192.22;;;13.68;100.00
80566;BME280;69915;54.862;10.730;2023-08-31T03:23:54;100206.75;;;13.77;100.00
80566;BME280;69915;54.862;10.730;2023-08-31T03:26:20;100202.09;;;13.69;100.00
80566;BME280;69915;54.862;10.730;2023-08-31T03:28:45;100205.66;;;13.69;100.00
80566;BME280;69915;54.862;10.730;2023-08-31T03:31:11;100197.56;;;13.64;100.00
80566;BME280;69915;54.862;10.730;2023-08-31T03:33:36;100200.66;;;13.62;100.00
80566;BME280;69915;54.862;10.730;2023-08-31T03:36:02;100190.00;;;13.52;100.00
80566;BME280;69915;54.862;10.730;2023-08-31T03:38:30;100197.13;;;13.53;100.00
80566;BME280;69915;54.862;10.730;2023-08-31T03:40:56;100205.50;;;13.57;100.00
80566;BME280;69915;54.862;10.730;2023-08-31T03:43:22;100202.44;;;13.50;100.00
80566;BME280;69915;54.862;10.730;2023-08-31T03:45:48;100218.25;;;13.61;100.00
80566;BME280;69915;54.862;10.730;2023-08-31T03:48:14;100217.78;;;13.59;100.00
80566;BME280;69915;54.862;10.730;2023-08-31T03:50:40;100220.06;;;13.57;100.00
80566;BME280;69915;54.862;10.730;2023-08-31T03:53:05;100213.75;;;13.57;100.00
80566;BME280;69915;54.862;10.730;2023-08-31T03:55:30;100220.06;;;13.57;100.00
80566;BME280;69915;54.862;10.730;2023-08-31T03:57:56;100201.97;;;13.48;100.00
80566;BME280;69915;54.862;10.730;2023-08-31T04:00:21;100214.38;;;13.62;100.00
80566;BME280;69915;54.862;10.730;2023-08-31T04:02:47;100216.00;;;13.72;100.00
80566;BME280;69915;54.862;10.730;2023-08-31T04:05:12;100198.22;;;13.61;100.00
80566;BME280;69915;54.862;10.730;2023-08-31T04:07:40;100213.09;;;13.69;100.00
80566;BME280;69915;54.862;10.730;2023-08-31T04:10:06;100201.31;;;13.59;100.00
80566;BME280;69915;54.862;10.730;2023-08-31T04:12:32;100220.50;;;13.68;100.00
80566;BME280;69915;54.862;10.730;2023-08-31T04:14:57;100213.09;;;13.60;100.00
80566;BME280;69915;54.862;10.730;2023-08-31T04:17:23;100209.38;;;13.56;100.00
80566;BME280;69915;54.862;10.730;2023-08-31T04:19:50;100217.59;;;13.64;100.00
80566;BME280;69915;54.862;10.730;2023-08-31T04:22:15;100221.31;;;13.69;100.00
80566;BME280;69915;54.862;10.730;2023-08-31T04:24:42;100204.72;;;13.56;100.00
80566;BME280;69915;54.862;10.730;2023-08-31T04:27:07;100194.53;;;13.57;100.00
80566;BME280;69915;54.862;10.730;2023-08-31T04:29:33;100219.22;;;13.66;100.00
80566;BME280;69915;54.862;10.730;2023-08-31T04:31:58;100200.03;;;13.57;100.00
80566;BME280;69915;54.862;10.730;2023-08-31T04:34:24;100221.31;;;13.69;100.00
80566;BME280;69915;54.862;10.730;2023-08-31T04:36:49;100215.34;;;13.58;100.00
80566;BME280;69915;54.862;10.730;2023-08-31T04:39:15;100209.84;;;13.58;100.00
80566;BME280;69915;54.862;10.730;2023-08-31T04:41:40;100208.09;;;13.53;100.00
80566;BME280;69915;54.862;10.730;2023-08-31T04:44:06;100221.50;;;13.63;100.00
80566;BME280;69915;54.862;10.730;2023-08-31T04:46:31;100207.63;;;13.51;100.00
80566;BME280;69915;54.862;10.730;2023-08-31T04:48:58;100224.91;;;13.60;100.00
80566;BME280;69915;54.862;10.730;2023-08-31T04:51:35;100209.22;;;13.52;100.00
80566;BME280;69915;54.862;10.730;2023-08-31T04:54:04;100223.28;;;13.59;100.00
80566;BME280;69915;54.862;10.730;2023-08-31T04:56:32;100237.00;;;13.59;100.00
80566;BME280;69915;54.862;10.730;2023-08-31T04:58:58;100230.41;;;13.60;100.00
80566;BME280;69915;54.862;10.730;2023-08-31T05:01:24;100236.84;;;13.64;100.00
80566;BME280;69915;54.862;10.730;2023-08-31T05:03:50;100212.63;;;13.49;100.00
80566;BME280;69915;54.862;10.730;2023-08-31T05:06:15;100211.50;;;13.50;100.00
80566;BME280;69915;54.862;10.730;2023-08-31T05:08:40;100220.72;;;13.54;100.00
80566;BME280;69915;54.862;10.730;2023-08-31T05:11:06;100239.75;;;13.68;100.00
80566;BME280;69915;54.862;10.730;2023-08-31T05:13:32;100236.81;;;13.73;100.00
80566;BME280;69915;54.862;10.730;2023-08-31T05:15:57;100218.88;;;13.67;100.00
80566;BME280;69915;54.862;10.730;2023-08-31T05:18:23;100228.25;;;13.75;100.00
80566;BME280;69915;54.862;10.730;2023-08-31T05:20:48;100239.88;;;13.80;100.00
80566;BME280;69915;54.862;10.730;2023-08-31T05:23:14;100245.03;;;13.90;100.00
80566;BME280;69915;54.862;10.730;2023-08-31T05:25:43;100244.69;;;13.92;100.00
80566;BME280;69915;54.862;10.730;2023-08-31T05:28:09;100250.53;;;13.90;100.00
80566;BME280;69915;54.862;10.730;2023-08-31T05:30:34;100237.47;;;13.79;100.00
80566;BME280;69915;54.862;10.730;2023-08-31T05:33:00;100264.91;;;13.96;100.00
80566;BME280;69915;54.862;10.730;2023-08-31T05:35:26;100262.34;;;13.91;100.00
80566;BME280;69915;54.862;10.730;2023-08-31T05:37:52;100248.28;;;13.84;100.00
80566;BME280;69915;54.862;10.730;2023-08-31T05:40:17;100266.53;;;13.97;100.00
80566;BME280;69915;54.862;10.730;2023-08-31T05:42:44;100251.34;;;13.91;100.00
80566;BME280;69915;54.862;10.730;2023-08-31T05:45:09;100278.63;;;14.04;99.66
80566;BME280;69915;54.862;10.730;2023-08-31T05:47:35;100258.94;;;13.94;99.33
80566;BME280;69915;54.862;10.730;2023-08-31T05:50:01;100271.19;;;14.05;99.83
80566;BME280;69915;54.862;10.730;2023-08-31T05:52:27;100267.47;;;14.01;99.71
80566;BME280;69915;54.862;10.730;2023-08-31T05:54:52;100264.72;;;14.01;99.05
80566;BME280;69915;54.862;10.730;2023-08-31T05:57:19;100280.69;;;14.16;99.39
80566;BME280;69915;54.862;10.730;2023-08-31T05:59:45;100284.09;;;14.22;99.46
80566;BME280;69915;54.862;10.730;2023-08-31T06:02:10;100283.56;;;14.28;99.30
80566;BME280;69915;54.862;10.730;2023-08-31T06:04:36;100296.84;;;14.35;99.67
80566;BME280;69915;54.862;10.730;2023-08-31T06:07:02;100283.91;;;14.35;100.00
80566;BME280;69915;54.862;10.730;2023-08-31T06:09:28;100284.69;;;14.44;100.00
80566;BME280;69915;54.862;10.730;2023-08-31T06:11:53;100288.06;;;14.50;99.83
80566;BME280;69915;54.862;10.730;2023-08-31T06:14:19;100287.41;;;14.53;99.28
80566;BME280;69915;54.862;10.730;2023-08-31T06:16:45;100276.44;;;14.44;98.74
80566;BME280;69915;54.862;10.730;2023-08-31T06:19:10;100304.03;;;14.65;99.18
80566;BME280;69915;54.862;10.730;2023-08-31T06:21:36;100304.47;;;14.76;98.69
80566;BME280;69915;54.862;10.730;2023-08-31T06:24:01;100288.63;;;14.73;98.57
80566;BME280;69915;54.862;10.730;2023-08-31T06:26:27;100282.44;;;14.76;97.94
80566;BME280;69915;54.862;10.730;2023-08-31T06:28:53;100291.66;;;14.80;98.12
80566;BME280;69915;54.862;10.730;2023-08-31T06:31:18;100308.28;;;14.92;98.18
80566;BME280;69915;54.862;10.730;2023-08-31T06:33:44;100301.63;;;14.93;98.53
80566;BME280;69915;54.862;10.730;2023-08-31T06:36:09;100293.56;;;14.88;98.66
80566;BME280;69915;54.862;10.730;2023-08-31T06:38:35;100301.44;;;14.98;98.05
80566;BME280;69915;54.862;10.730;2023-08-31T06:41:02;100304.28;;;15.10;97.44
80566;BME280;69915;54.862;10.730;2023-08-31T06:43:27;100317.78;;;15.23;96.98
80566;BME280;69915;54.862;10.730;2023-08-31T06:45:53;100294.34;;;15.17;96.25
80566;BME280;69915;54.862;10.730;2023-08-31T06:48:19;100301.00;;;15.16;96.34
80566;BME280;69915;54.862;10.730;2023-08-31T06:50:44;100315.09;;;15.15;96.18
80566;BME280;69915;54.862;10.730;2023-08-31T06:53:10;100322.75;;;15.09;96.57
80566;BME280;69915;54.862;10.730;2023-08-31T06:55:35;100298.88;;;14.93;96.94
80566;BME280;69915;54.862;10.730;2023-08-31T06:58:01;100310.47;;;14.98;96.08
80566;BME280;69915;54.862;10.730;2023-08-31T07:00:28;100295.66;;;14.91;95.63
80566;BME280;69915;54.862;10.730;2023-08-31T07:02:53;100292.69;;;14.96;95.37
80566;BME280;69915;54.862;10.730;2023-08-31T07:05:19;100294.78;;;14.99;94.87
80566;BME280;69915;54.862;10.730;2023-08-31T07:07:54;100315.56;;;15.17;94.36
80566;BME280;69915;54.862;10.730;2023-08-31T07:10:20;100305.63;;;15.04;94.36
80566;BME280;69915;54.862;10.730;2023-08-31T07:12:46;100315.16;;;15.06;94.70
80566;BME280;69915;54.862;10.730;2023-08-31T07:15:11;100328.41;;;15.13;94.26
80566;BME280;69915;54.862;10.730;2023-08-31T07:17:36;100329.34;;;15.17;93.78
80566;BME280;69915;54.862;10.730;2023-08-31T07:20:02;100314.78;;;15.16;93.03
80566;BME280;69915;54.862;10.730;2023-08-31T07:22:32;100311.97;;;15.25;92.57
80566;BME280;69915;54.862;10.730;2023-08-31T07:24:58;100327.88;;;15.49;91.87
80566;BME280;69915;54.862;10.730;2023-08-31T07:27:23;100319.56;;;15.28;91.72
80566;BME280;69915;54.862;10.730;2023-08-31T07:29:49;100334.88;;;15.38;91.76
80566;BME280;69915;54.862;10.730;2023-08-31T07:32:14;100324.31;;;15.19;92.57
80566;BME280;69915;54.862;10.730;2023-08-31T07:34:39;100346.50;;;15.22;93.49
80566;BME280;69915;54.862;10.730;2023-08-31T07:37:05;100337.59;;;15.17;93.13
80566;BME280;69915;54.862;10.730;2023-08-31T07:39:32;100333.16;;;15.04;93.53
80566;BME280;69915;54.862;10.730;2023-08-31T07:41:57;100352.88;;;15.06;93.52
80566;BME280;69915;54.862;10.730;2023-08-31T07:44:24;100332.00;;;15.05;93.69
80566;BME280;69915;54.862;10.730;2023-08-31T07:46:50;100323.38;;;15.15;93.31
80566;BME280;69915;54.862;10.730;2023-08-31T07:49:15;100321.22;;;15.41;92.22
80566;BME280;69915;54.862;10.730;2023-08-31T07:51:41;100320.47;;;15.61;91.40
80566;BME280;69915;54.862;10.730;2023-08-31T07:54:06;100321.59;;;15.81;88.59
80566;BME280;69915;54.862;10.730;2023-08-31T07:56:32;100319.47;;;16.19;87.20
80566;BME280;69915;54.862;10.730;2023-08-31T07:58:57;100332.63;;;16.47;84.69
80566;BME280;69915;54.862;10.730;2023-08-31T08:01:23;100357.66;;;16.62;83.06
80566;BME280;69915;54.862;10.730;2023-08-31T08:03:49;100364.03;;;16.99;81.70
80566;BME280;69915;54.862;10.730;2023-08-31T08:06:14;100340.06;;;16.79;81.70
80566;BME280;69915;54.862;10.730;2023-08-31T08:08:40;100354.81;;;17.07;82.01
80566;BME280;69915;54.862;10.730;2023-08-31T08:11:05;100364.72;;;17.08;81.59
80566;BME280;69915;54.862;10.730;2023-08-31T08:13:31;100367.81;;;17.19;79.92
80566;BME280;69915;54.862;10.730;2023-08-31T08:15:56;100363.34;;;17.14;79.58
80566;BME280;69915;54.862;10.730;2023-08-31T08:18:22;100374.50;;;17.18;81.91
80566;BME280;69915;54.862;10.730;2023-08-31T08:20:48;100363.19;;;17.35;81.91
80566;BME280;69915;54.862;10.730;2023-08-31T08:23:14;100366.53;;;17.16;81.90
80566;BME280;69915;54.862;10.730;2023-08-31T08:25:40;100368.28;;;17.33;80.97
80566;BME280;69915;54.862;10.730;2023-08-31T08:28:05;100350.31;;;17.27;81.10
80566;BME280;69915;54.862;10.730;2023-08-31T08:30:34;100355.97;;;17.30;79.89
80566;BME280;69915;54.862;10.730;2023-08-31T08:32:59;100374.69;;;17.49;80.39
80566;BME280;69915;54.862;10.730;2023-08-31T08:35:25;100370.09;;;17.65;79.77
80566;BME280;69915;54.862;10.730;2023-08-31T08:37:51;100351.31;;;17.59;79.75
80566;BME280;69915;54.862;10.730;2023-08-31T08:40:17;100365.13;;;17.71;79.31
80566;BME280;69915;54.862;10.730;2023-08-31T08:42:43;100359.88;;;17.93;80.10
80566;BME280;69915;54.862;10.730;2023-08-31T08:45:15;100356.75;;;17.95;78.53
80566;BME280;69915;54.862;10.730;2023-08-31T08:47:42;100353.19;;;17.94;76.92
80566;BME280;69915;54.862;10.730;2023-08-31T08:50:10;100373.22;;;18.47;77.64
80566;BME280;69915;54.862;10.730;2023-08-31T08:52:35;100362.38;;;18.54;75.43
80566;BME280;69915;54.862;10.730;2023-08-31T08:55:01;100357.47;;;18.63;76.33
80566;BME280;69915;54.862;10.730;2023-08-31T09:00:18;100358.75;;;18.38;76.86
80566;BME280;69915;54.862;10.730;2023-08-31T09:02:44;100382.38;;;17.80;76.14
80566;BME280;69915;54.862;10.730;2023-08-31T09:05:11;100390.00;;;17.71;77.04
80566;BME280;69915;54.862;10.730;2023-08-31T09:07:36;100386.38;;;17.94;76.96
80566;BME280;69915;54.862;10.730;2023-08-31T09:10:02;100385.31;;;17.99;76.78
80566;BME280;69915;54.862;10.730;2023-08-31T09:12:29;100373.84;;;17.85;76.29
80566;BME280;69915;54.862;10.730;2023-08-31T09:15:02;100385.78;;;17.61;77.94
80566;BME280;69915;54.862;10.730;2023-08-31T09:17:42;100383.88;;;17.77;78.05
80566;BME280;69915;54.862;10.730;2023-08-31T09:20:31;100396.16;;;17.64;78.46
80566;BME280;69915;54.862;10.730;2023-08-31T09:22:56;100387.22;;;17.71;76.87
80566;BME280;69915;54.862;10.730;2023-08-31T09:25:22;100388.59;;;17.77;78.69
80566;BME280;69915;54.862;10.730;2023-08-31T09:27:48;100385.63;;;17.82;76.91
80566;BME280;69915;54.862;10.730;2023-08-31T09:30:13;100367.22;;;17.62;77.00
80566;BME280;69915;54.862;10.730;2023-08-31T09:32:39;100374.31;;;17.75;76.64
80566;BME280;69915;54.862;10.730;2023-08-31T09:35:11;100396.53;;;17.90;76.32
80566;BME280;69915;54.862;10.730;2023-08-31T09:37:36;100390.75;;;17.95;77.07
80566;BME280;69915;54.862;10.730;2023-08-31T09:40:05;100393.97;;;17.98;75.72
80566;BME280;69915;54.862;10.730;2023-08-31T09:42:37;100392.31;;;18.09;77.49
80566;BME280;69915;54.862;10.730;2023-08-31T09:45:03;100376.31;;;18.30;75.87
80566;BME280;69915;54.862;10.730;2023-08-31T09:47:29;100384.34;;;18.19;73.55
80566;BME280;69915;54.862;10.730;2023-08-31T09:49:56;100370.75;;;18.14;73.36
80566;BME280;69915;54.862;10.730;2023-08-31T09:52:23;100400.53;;;18.33;73.59
80566;BME280;69915;54.862;10.730;2023-08-31T09:54:50;100382.28;;;18.04;73.48
80566;BME280;69915;54.862;10.730;2023-08-31T09:57:25;100385.97;;;17.68;74.87
80566;BME280;69915;54.862;10.730;2023-08-31T09:59:58;100408.03;;;17.92;75.44
80566;BME280;69915;54.862;10.730;2023-08-31T10:02:25;100405.91;;;18.14;75.29
80566;BME280;69915;54.862;10.730;2023-08-31T10:04:51;100379.59;;;18.20;75.39
80566;BME280;69915;54.862;10.730;2023-08-31T10:07:18;100389.50;;;18.21;73.47
80566;BME280;69915;54.862;10.730;2023-08-31T10:09:45;100393.22;;;18.53;71.00
80566;BME280;69915;54.862;10.730;2023-08-31T10:12:17;100401.97;;;18.70;70.43
80566;BME280;69915;54.862;10.730;2023-08-31T10:14:59;100415.31;;;18.80;70.92
80566;BME280;69915;54.862;10.730;2023-08-31T10:17:34;100406.38;;;18.71;70.91
80566;BME280;69915;54.862;10.730;2023-08-31T10:20:03;100405.13;;;18.84;70.73
80566;BME280;69915;54.862;10.730;2023-08-31T10:22:29;100420.22;;;18.87;71.39
80566;BME280;69915;54.862;10.730;2023-08-31T10:25:03;100406.38;;;18.71;70.56
80566;BME280;69915;54.862;10.730;2023-08-31T10:27:39;100405.09;;;18.69;69.70
80566;BME280;69915;54.862;10.730;2023-08-31T10:38:32;100400.03;;;20.03;65.14
80566;BME280;69915;54.862;10.730;2023-08-31T10:43:52;100421.91;;;19.54;67.51
80566;BME280;69915;54.862;10.730;2023-08-31T10:46:32;100425.63;;;19.77;69.39
80566;BME280;69915;54.862;10.730;2023-08-31T10:49:14;100420.00;;;19.74;67.76
80566;BME280;69915;54.862;10.730;2023-08-31T10:51:41;100406.72;;;19.48;68.73
80566;BME280;69915;54.862;10.730;2023-08-31T10:59:50;100432.09;;;19.81;69.40
80566;BME280;69915;54.862;10.730;2023-08-31T11:02:36;100423.06;;;19.69;68.41
80566;BME280;69915;54.862;10.730;2023-08-31T11:05:06;100427.03;;;20.41;67.46
80566;BME280;69915;54.862;10.730;2023-08-31T11:07:33;100431.47;;;20.64;66.44
80566;BME280;69915;54.862;10.730;2023-08-31T11:10:20;100418.03;;;20.89;63.92
80566;BME280;69915;54.862;10.730;2023-08-31T11:12:48;100428.06;;;21.16;64.29
80566;BME280;69915;54.862;10.730;2023-08-31T11:15:18;100400.19;;;20.90;61.37
80566;BME280;69915;54.862;10.730;2023-08-31T11:17:45;100407.38;;;20.91;62.72
80566;BME280;69915;54.862;10.730;2023-08-31T11:20:18;100436.66;;;20.47;64.14
80566;BME280;69915;54.862;10.730;2023-08-31T11:22:50;100422.06;;;20.50;63.67
80566;BME280;69915;54.862;10.730;2023-08-31T11:25:18;100423.91;;;20.42;61.76
80566;BME280;69915;54.862;10.730;2023-08-31T11:28:07;100441.75;;;20.06;64.49
80566;BME280;69915;54.862;10.730;2023-08-31T11:30:34;100424.22;;;20.22;65.60
80566;BME280;69915;54.862;10.730;2023-08-31T11:33:04;100445.56;;;20.75;63.82
80566;BME280;69915;54.862;10.730;2023-08-31T11:35:35;100438.38;;;20.93;63.73
80566;BME280;69915;54.862;10.730;2023-08-31T11:38:02;100416.06;;;20.48;66.20
80566;BME280;69915;54.862;10.730;2023-08-31T11:40:28;100420.59;;;20.37;67.21
80566;BME280;69915;54.862;10.730;2023-08-31T11:42:54;100419.59;;;20.26;66.63
80566;BME280;69915;54.862;10.730;2023-08-31T11:45:20;100439.88;;;20.68;66.18
80566;BME280;69915;54.862;10.730;2023-08-31T11:47:48;100433.16;;;20.50;65.05
80566;BME280;69915;54.862;10.730;2023-08-31T11:50:16;100431.38;;;20.23;64.91
80566;BME280;69915;54.862;10.730;2023-08-31T11:52:42;100433.28;;;20.19;66.61
80566;BME280;69915;54.862;10.730;2023-08-31T11:55:12;100431.22;;;20.16;67.46
80566;BME280;69915;54.862;10.730;2023-08-31T11:57:37;100424.88;;;19.61;67.27
80566;BME280;69915;54.862;10.730;2023-08-31T12:00:03;100436.94;;;18.90;69.21
80566;BME280;69915;54.862;10.730;2023-08-31T12:02:40;100444.09;;;18.91;69.73
80566;BME280;69915;54.862;10.730;2023-08-31T12:05:05;100436.84;;;19.65;67.58
80566;BME280;69915;54.862;10.730;2023-08-31T12:07:31;100422.09;;;19.61;65.71
80566;BME280;69915;54.862;10.730;2023-08-31T12:10:03;100447.84;;;19.15;64.16
80566;BME280;69915;54.862;10.730;2023-08-31T12:12:29;100443.66;;;19.52;62.90
80566;BME280;69915;54.862;10.730;2023-08-31T12:14:58;100421.25;;;19.76;63.85
80566;BME280;69915;54.862;10.730;2023-08-31T12:17:26;100426.25;;;19.86;62.15
80566;BME280;69915;54.862;10.730;2023-08-31T12:19:51;100414.28;;;20.01;63.69
80566;BME280;69915;54.862;10.730;2023-08-31T12:22:17;100412.44;;;20.09;67.12
80566;BME280;69915;54.862;10.730;2023-08-31T12:24:42;100429.97;;;20.29;63.74
80566;BME280;69915;54.862;10.730;2023-08-31T12:27:08;100447.06;;;20.50;64.96
80566;BME280;69915;54.862;10.730;2023-08-31T12:29:34;100430.38;;;20.12;64.68
80566;BME280;69915;54.862;10.730;2023-08-31T12:32:00;100450.72;;;20.00;65.42
80566;BME280;69915;54.862;10.730;2023-08-31T12:34:25;100437.25;;;19.83;67.06
80566;BME280;69915;54.862;10.730;2023-08-31T12:36:51;100431.78;;;19.05;64.42
80566;BME280;69915;54.862;10.730;2023-08-31T12:39:18;100439.19;;;18.57;66.79
80566;BME280;69915;54.862;10.730;2023-08-31T12:41:43;100460.16;;;18.86;68.33
80566;BME280;69915;54.862;10.730;2023-08-31T12:44:09;100450.81;;;19.22;64.50
80566;BME280;69915;54.862;10.730;2023-08-31T12:46:34;100442.13;;;19.70;63.01
80566;BME280;69915;54.862;10.730;2023-08-31T12:49:00;100467.84;;;19.86;63.29
80566;BME280;69915;54.862;10.730;2023-08-31T12:51:28;100467.81;;;19.51;66.46
80566;BME280;69915;54.862;10.730;2023-08-31T12:53:54;100448.94;;;19.57;66.95
80566;BME280;69915;54.862;10.730;2023-08-31T12:56:20;100464.59;;;19.49;65.15
80566;BME280;69915;54.862;10.730;2023-08-31T12:58:52;100454.22;;;19.46;63.41
80566;BME280;69915;54.862;10.730;2023-08-31T13:01:19;100460.94;;;19.96;61.49
80566;BME280;69915;54.862;10.730;2023-08-31T13:03:45;100461.34;;;20.14;60.21